sensor_id;sensor_type;location;lat;lon;timestamp;P1;durP1;ratioP1;P2;durP2;ratioP2
25980;SDS011;13772;52.996;9.124;2022-09-09T06:51:03;3.30;;;1.67;;
25980;SDS011;13772;52.996;9.124;2022-09-09T06:53:29;3.17;;;1.77;;
25980;SDS011;13772;52.996;9.124;2022-09-09T06:55:55;4.65;;;1.80;;
25980;SDS011;13772;52.996;9.124;2022-09-09T06:58:21;4.35;;;2.03;;
25980;SDS011;13772;52.996;9.124;2022-09-09T07:00:50;4.80;;;2.38;;
25980;SDS011;13772;52.996;9.124;2022-09-09T07:03:16;6.82;;;2.50;;
25980;SDS011;13772;52.996;9.124;2022-09-09T07:05:43;8.32;;;2.90;;
25980;SDS011;13772;52.996;9.124;2022-09-09T07:08:10;3.97;;;2.67;;
25980;SDS011;13772;52.996;9.124;2022-09-09T07:10:35;5.03;;;2.60;;
25980;SDS011;13772;52.996;9.124;2022-09-09T07:13:01;6.07;;;2.70;;
25980;SDS011;13772;52.996;9.124;2022-09-09T07:15:27;5.38;;;3.00;;
25980;SDS011;13772;52.996;9.124;2022-09-09T07:17:53;7.95;;;2.97;;
25980;SDS011;13772;52.996;9.124;2022-09-09T07:20:20;8.85;;;3.03;;
25980;SDS011;13772;52.996;9.124;2022-09-09T07:22:45;8.38;;;2.95;;
25980;SDS011;13772;52.996;9.124;2022-09-09T07:25:10;4.68;;;2.70;;
25980;SDS011;13772;52.996;9.124;2022-09-09T07:27:36;5.68;;;2.97;;
25980;SDS011;13772;52.996;9.124;2022-09-09T07:30:03;5.18;;;2.63;;
25980;SDS011;13772;52.996;9.124;2022-09-09T07:32:30;8.25;;;3.15;;
25980;SDS011;13772;52.996;9.124;2022-09-09T07:34:56;6.20;;;3.30;;
25980;SDS011;13772;52.996;9.124;2022-09-09T07:37:23;7.97;;;3.40;;
25980;SDS011;13772;52.996;9.124;2022-09-09T07:39:49;7.88;;;3.08;;
25980;SDS011;13772;52.996;9.124;2022-09-09T07:42:16;7.28;;;3.08;;
25980;SDS011;13772;52.996;9.124;2022-09-09T07:44:42;6.78;;;4.05;;
25980;SDS011;13772;52.996;9.124;2022-09-09T07:47:13;6.28;;;3.53;;
25980;SDS011;13772;52.996;9.124;2022-09-09T07:49:43;9.32;;;3.05;;
25980;SDS011;13772;52.996;9.124;2022-09-09T07:52:08;7.30;;;3.10;;
25980;SDS011;13772;52.996;9.124;2022-09-09T07:54:35;5.80;;;2.90;;
25980;SDS011;13772;52.996;9.124;2022-09-09T07:57:03;6.50;;;2.67;;
25980;SDS011;13772;52.996;9.124;2022-09-09T07:59:30;6.40;;;2.63;;
25980;SDS011;13772;52.996;9.124;2022-09-09T08:01:56;7.25;;;2.83;;
25980;SDS011;13772;52.996;9.124;2022-09-09T08:04:25;7.63;;;2.65;;
25980;SDS011;13772;52.996;9.124;2022-09-09T08:06:52;6.97;;;3.65;;
25980;SDS011;13772;52.996;9.124;2022-09-09T08:09:19;4.50;;;2.70;;
25980;SDS011;13772;52.996;9.124;2022-09-09T08:11:46;9.73;;;3.35;;
25980;SDS011;13772;52.996;9.124;2022-09-09T08:14:12;5.78;;;2.40;;
25980;SDS011;13772;52.996;9.124;2022-09-09T08:16:38;4.00;;;2.50;;
25980;SDS011;13772;52.996;9.124;2022-09-09T08:19:04;6.40;;;2.65;;
25980;SDS011;13772;52.996;9.124;2022-09-09T08:21:32;6.00;;;3.35;;
25980;SDS011;13772;52.996;9.124;2022-09-09T08:23:59;6.18;;;2.67;;
25980;SDS011;13772;52.996;9.124;2022-09-09T08:26:26;5.55;;;2.78;;
25980;SDS011;13772;52.996;9.124;2022-09-09T08:28:53;7.18;;;3.03;;
25980;SDS011;13772;52.996;9.124;2022-09-09T08:31:20;6.88;;;2.70;;
25980;SDS011;13772;52.996;9.124;2022-09-09T08:33:47;6.97;;;3.15;;
25980;SDS011;13772;52.996;9.124;2022-09-09T08:36:13;7.47;;;2.88;;
25980;SDS011;13772;52.996;9.124;2022-09-09T08:38:41;6.07;;;2.88;;
25980;SDS011;13772;52.996;9.124;2022-09-09T08:41:30;5.35;;;3.03;;
25980;SDS011;13772;52.996;9.124;2022-09-09T08:43:58;9.20;;;2.72;;
25980;SDS011;13772;52.996;9.124;2022-09-09T08:46:31;5.97;;;2.78;;
25980;SDS011;13772;52.996;9.124;2022-09-09T08:49:12;5.90;;;2.90;;
25980;SDS011;13772;52.996;9.124;2022-09-09T08:51:41;7.07;;;3.30;;
25980;SDS011;13772;52.996;9.124;2022-09-09T08:54:07;7.00;;;3.53;;
25980;SDS011;13772;52.996;9.124;2022-09-09T08:56:34;8.68;;;3.25;;
25980;SDS011;13772;52.996;9.124;2022-09-09T08:59:01;9.07;;;2.97;;
25980;SDS011;13772;52.996;9.124;2022-09-09T09:01:42;6.35;;;2.60;;
25980;SDS011;13772;52.996;9.124;2022-09-09T09:04:26;5.93;;;2.55;;
25980;SDS011;13772;52.996;9.124;2022-09-09T09:07:08;7.70;;;2.65;;
25980;SDS011;13772;52.996;9.124;2022-09-09T09:12:15;6.13;;;2.30;;
25980;SDS011;13772;52.996;9.124;2022-09-09T09:14:41;5.70;;;2.33;;
25980;SDS011;13772;52.996;9.124;2022-09-09T09:17:18;8.68;;;2.58;;
25980;SDS011;13772;52.996;9.124;2022-09-09T09:19:44;5.15;;;2.72;;
25980;SDS011;13772;52.996;9.124;2022-09-09T09:22:19;3.95;;;2.40;;
25980;SDS011;13772;52.996;9.124;2022-09-09T09:27:33;3.75;;;2.42;;
25980;SDS011;13772;52.996;9.124;2022-09-09T09:30:17;7.45;;;3.60;;
25980;SDS011;13772;52.996;9.124;2022-09-09T09:32:49;6.30;;;2.63;;
25980;SDS011;13772;52.996;9.124;2022-09-09T09:35:16;9.13;;;3.65;;
25980;SDS011;13772;52.996;9.124;2022-09-09T09:37:41;6.65;;;3.30;;
25980;SDS011;13772;52.996;9.124;2022-09-09T09:40:11;6.85;;;3.08;;
25980;SDS011;13772;52.996;9.124;2022-09-09T09:42:37;9.88;;;3.28;;
25980;SDS011;13772;52.996;9.124;2022-09-09T09:45:07;6.57;;;2.60;;
25980;SDS011;13772;52.996;9.124;2022-09-09T09:47:32;8.05;;;2.65;;
25980;SDS011;13772;52.996;9.124;2022-09-09T09:50:16;6.00;;;2.65;;
25980;SDS011;13772;52.996;9.124;2022-09-09T09:52:42;5.72;;;2.42;;
25980;SDS011;13772;52.996;9.124;2022-09-09T09:55:11;5.05;;;2.42;;
25980;SDS011;13772;52.996;9.124;2022-09-09T09:57:38;5.25;;;2.35;;
25980;SDS011;13772;52.996;9.124;2022-09-09T10:00:13;6.20;;;2.25;;
25980;SDS011;13772;52.996;9.124;2022-09-09T10:02:46;6.95;;;2.72;;
25980;SDS011;13772;52.996;9.124;2022-09-09T10:05:21;4.25;;;2.10;;
25980;SDS011;13772;52.996;9.124;2022-09-09T10:08:05;5.38;;;2.03;;
25980;SDS011;13772;52.996;9.124;2022-09-09T10:13:14;6.60;;;1.90;;
25980;SDS011;13772;52.996;9.124;2022-09-09T10:25:44;3.97;;;1.15;;
25980;SDS011;13772;52.996;9.124;2022-09-09T10:28:18;6.00;;;1.23;;
25980;SDS011;13772;52.996;9.124;2022-09-09T10:39:02;5.78;;;1.40;;
25980;SDS011;13772;52.996;9.124;2022-09-09T10:41:39;4.03;;;1.30;;
25980;SDS011;13772;52.996;9.124;2022-09-09T10:49:47;4.47;;;1.27;;
25980;SDS011;13772;52.996;9.124;2022-09-09T10:55:15;9.00;;;1.85;;
25980;SDS011;13772;52.996;9.124;2022-09-09T10:57:43;8.48;;;2.15;;
25980;SDS011;13772;52.996;9.124;2022-09-09T11:00:20;6.90;;;1.77;;
25980;SDS011;13772;52.996;9.124;2022-09-09T11:02:56;9.27;;;1.95;;
25980;SDS011;13772;52.996;9.124;2022-09-09T11:05:22;6.55;;;1.90;;
25980;SDS011;13772;52.996;9.124;2022-09-09T11:10:38;6.70;;;1.50;;
25980;SDS011;13772;52.996;9.124;2022-09-09T11:13:06;6.90;;;2.03;;
25980;SDS011;13772;52.996;9.124;2022-09-09T11:15:54;5.85;;;1.67;;
25980;SDS011;13772;52.996;9.124;2022-09-09T11:18:22;5.20;;;1.42;;
25980;SDS011;13772;52.996;9.124;2022-09-09T11:20:49;7.97;;;2.47;;
25980;SDS011;13772;52.996;9.124;2022-09-09T11:23:21;8.50;;;2.20;;
25980;SDS011;13772;52.996;9.124;2022-09-09T11:25:55;9.00;;;2.40;;
25980;SDS011;13772;52.996;9.124;2022-09-09T11:28:26;7.25;;;1.92;;
25980;SDS011;13772;52.996;9.124;2022-09-09T11:36:31;10.93;;;2.35;;
25980;SDS011;13772;52.996;9.124;2022-09-09T11:41:46;6.75;;;2.28;;
25980;SDS011;13772;52.996;9.124;2022-09-09T11:44:12;7.97;;;2.63;;
25980;SDS011;13772;52.996;9.124;2022-09-09T11:46:38;9.80;;;3.08;;
25980;SDS011;13772;52.996;9.124;2022-09-09T11:49:05;11.93;;;3.45;;
25980;SDS011;13772;52.996;9.124;2022-09-09T11:51:31;24.08;;;6.07;;
25980;SDS011;13772;52.996;9.124;2022-09-09T11:58:56;18.98;;;4.95;;
25980;SDS011;13772;52.996;9.124;2022-09-09T12:01:27;13.27;;;5.00;;
25980;SDS011;13772;52.996;9.124;2022-09-09T12:06:44;27.02;;;6.57;;
25980;SDS011;13772;52.996;9.124;2022-09-09T12:09:31;38.85;;;7.72;;
25980;SDS011;13772;52.996;9.124;2022-09-09T12:12:39;16.08;;;3.67;;
25980;SDS011;13772;52.996;9.124;2022-09-09T12:14:59;9.47;;;2.67;;
25980;SDS011;13772;52.996;9.124;2022-09-09T12:17:26;7.70;;;2.58;;
25980;SDS011;13772;52.996;9.124;2022-09-09T12:20:02;8.38;;;2.83;;
25980;SDS011;13772;52.996;9.124;2022-09-09T12:30:23;4.88;;;1.55;;
25980;SDS011;13772;52.996;9.124;2022-09-09T12:33:08;6.47;;;1.70;;
25980;SDS011;13772;52.996;9.124;2022-09-09T12:35:35;6.78;;;1.80;;
25980;SDS011;13772;52.996;9.124;2022-09-09T12:38:03;6.90;;;2.07;;
25980;SDS011;13772;52.996;9.124;2022-09-09T12:40:30;6.10;;;1.90;;
25980;SDS011;13772;52.996;9.124;2022-09-09T12:42:57;7.50;;;2.72;;
25980;SDS011;13772;52.996;9.124;2022-09-09T12:45:26;11.40;;;4.05;;
25980;SDS011;13772;52.996;9.124;2022-09-09T12:50:27;11.85;;;4.82;;
25980;SDS011;13772;52.996;9.124;2022-09-09T12:55:48;11.57;;;5.18;;
25980;SDS011;13772;52.996;9.124;2022-09-09T12:58:13;9.10;;;5.32;;
25980;SDS011;13772;52.996;9.124;2022-09-09T13:00:48;6.88;;;4.43;;
25980;SDS011;13772;52.996;9.124;2022-09-09T13:03:17;9.88;;;3.90;;
25980;SDS011;13772;52.996;9.124;2022-09-09T13:05:42;8.63;;;3.75;;
25980;SDS011;13772;52.996;9.124;2022-09-09T13:08:08;7.18;;;3.80;;
25980;SDS011;13772;52.996;9.124;2022-09-09T13:11:20;6.53;;;3.47;;
25980;SDS011;13772;52.996;9.124;2022-09-09T13:13:43;6.43;;;3.10;;
25980;SDS011;13772;52.996;9.124;2022-09-09T13:16:18;9.65;;;3.30;;
25980;SDS011;13772;52.996;9.124;2022-09-09T13:18:44;5.05;;;3.10;;
25980;SDS011;13772;52.996;9.124;2022-09-09T13:21:09;6.13;;;2.25;;
25980;SDS011;13772;52.996;9.124;2022-09-09T13:23:35;6.57;;;2.25;;
25980;SDS011;13772;52.996;9.124;2022-09-09T13:26:02;5.85;;;2.10;;
25980;SDS011;13772;52.996;9.124;2022-09-09T13:28:29;7.53;;;1.70;;
25980;SDS011;13772;52.996;9.124;2022-09-09T13:33:36;4.30;;;1.20;;
25980;SDS011;13772;52.996;9.124;2022-09-09T13:36:06;3.80;;;1.45;;
25980;SDS011;13772;52.996;9.124;2022-09-09T13:38:32;4.47;;;1.10;;
25980;SDS011;13772;52.996;9.124;2022-09-09T13:43:26;4.45;;;1.42;;
25980;SDS011;13772;52.996;9.124;2022-09-09T13:45:53;2.67;;;0.95;;
25980;SDS011;13772;52.996;9.124;2022-09-09T13:48:19;3.60;;;1.05;;
25980;SDS011;13772;52.996;9.124;2022-09-09T13:50:53;5.55;;;1.50;;
25980;SDS011;13772;52.996;9.124;2022-09-09T13:53:18;4.97;;;1.27;;
25980;SDS011;13772;52.996;9.124;2022-09-09T13:55:43;3.83;;;1.38;;
25980;SDS011;13772;52.996;9.124;2022-09-09T13:58:14;3.75;;;1.63;;
25980;SDS011;13772;52.996;9.124;2022-09-09T14:00:40;2.90;;;1.20;;
25980;SDS011;13772;52.996;9.124;2022-09-09T14:03:05;7.35;;;1.80;;
25980;SDS011;13772;52.996;9.124;2022-09-09T14:05:32;5.95;;;1.60;;
25980;SDS011;13772;52.996;9.124;2022-09-09T14:07:58;4.15;;;1.92;;
25980;SDS011;13772;52.996;9.124;2022-09-09T14:10:25;4.53;;;1.80;;
25980;SDS011;13772;52.996;9.124;2022-09-09T14:12:50;6.78;;;1.83;;
25980;SDS011;13772;52.996;9.124;2022-09-09T14:15:16;4.20;;;1.48;;
25980;SDS011;13772;52.996;9.124;2022-09-09T14:17:41;5.05;;;1.73;;
25980;SDS011;13772;52.996;9.124;2022-09-09T14:20:07;7.65;;;2.05;;
25980;SDS011;13772;52.996;9.124;2022-09-09T14:22:34;4.18;;;1.85;;
25980;SDS011;13772;52.996;9.124;2022-09-09T14:24:59;3.58;;;1.88;;
25980;SDS011;13772;52.996;9.124;2022-09-09T14:27:25;4.93;;;2.20;;
25980;SDS011;13772;52.996;9.124;2022-09-09T14:29:51;9.05;;;2.70;;
25980;SDS011;13772;52.996;9.124;2022-09-09T14:32:16;10.88;;;2.75;;
25980;SDS011;13772;52.996;9.124;2022-09-09T14:34:42;10.15;;;3.05;;
25980;SDS011;13772;52.996;9.124;2022-09-09T14:37:07;8.38;;;3.97;;
25980;SDS011;13772;52.996;9.124;2022-09-09T14:39:32;8.07;;;3.42;;
25980;SDS011;13772;52.996;9.124;2022-09-09T14:41:57;9.88;;;4.05;;
25980;SDS011;13772;52.996;9.124;2022-09-09T14:44:23;6.97;;;3.83;;
25980;SDS011;13772;52.996;9.124;2022-09-09T14:46:48;9.52;;;4.35;;
25980;SDS011;13772;52.996;9.124;2022-09-09T14:49:15;11.63;;;4.25;;
25980;SDS011;13772;52.996;9.124;2022-09-09T14:51:40;9.23;;;4.85;;
25980;SDS011;13772;52.996;9.124;2022-09-09T14:54:05;8.57;;;4.55;;
25980;SDS011;13772;52.996;9.124;2022-09-09T14:56:32;17.85;;;5.55;;
25980;SDS011;13772;52.996;9.124;2022-09-09T14:58:59;8.45;;;5.18;;
25980;SDS011;13772;52.996;9.124;2022-09-09T15:01:27;7.93;;;4.10;;
25980;SDS011;13772;52.996;9.124;2022-09-09T15:03:54;8.65;;;4.15;;
25980;SDS011;13772;52.996;9.124;2022-09-09T15:06:22;9.30;;;3.47;;
25980;SDS011;13772;52.996;9.124;2022-09-09T15:08:49;7.25;;;3.75;;
25980;SDS011;13772;52.996;9.124;2022-09-09T15:11:14;8.75;;;4.28;;
25980;SDS011;13772;52.996;9.124;2022-09-09T15:13:41;8.40;;;3.67;;
25980;SDS011;13772;52.996;9.124;2022-09-09T15:16:08;8.05;;;3.53;;
25980;SDS011;13772;52.996;9.124;2022-09-09T15:18:34;9.25;;;3.10;;
25980;SDS011;13772;52.996;9.124;2022-09-09T15:21:01;8.02;;;2.90;;
25980;SDS011;13772;52.996;9.124;2022-09-09T15:23:28;8.60;;;2.70;;
25980;SDS011;13772;52.996;9.124;2022-09-09T15:25:53;10.38;;;2.70;;
25980;SDS011;13772;52.996;9.124;2022-09-09T15:28:19;6.45;;;2.17;;
25980;SDS011;13772;52.996;9.124;2022-09-09T15:30:46;7.95;;;2.20;;
25980;SDS011;13772;52.996;9.124;2022-09-09T15:33:12;6.53;;;2.42;;
25980;SDS011;13772;52.996;9.124;2022-09-09T15:35:37;8.63;;;2.50;;
25980;SDS011;13772;52.996;9.124;2022-09-09T15:38:02;5.43;;;2.42;;
25980;SDS011;13772;52.996;9.124;2022-09-09T15:40:29;6.32;;;2.33;;
25980;SDS011;13772;52.996;9.124;2022-09-09T15:42:57;8.27;;;2.63;;
25980;SDS011;13772;52.996;9.124;2022-09-09T15:45:22;8.80;;;2.97;;
25980;SDS011;13772;52.996;9.124;2022-09-09T15:47:47;15.15;;;3.47;;
25980;SDS011;13772;52.996;9.124;2022-09-09T15:50:12;8.18;;;2.80;;
25980;SDS011;13772;52.996;9.124;2022-09-09T15:52:38;9.07;;;3.20;;
25980;SDS011;13772;52.996;9.124;2022-09-09T15:55:03;9.65;;;3.33;;
25980;SDS011;13772;52.996;9.124;2022-09-09T15:57:28;9.05;;;3.20;;
25980;SDS011;13772;52.996;9.124;2022-09-09T15:59:53;6.60;;;2.65;;
25980;SDS011;13772;52.996;9.124;2022-09-09T16:02:19;8.27;;;2.70;;
25980;SDS011;13772;52.996;9.124;2022-09-09T16:04:44;6.38;;;2.75;;
25980;SDS011;13772;52.996;9.124;2022-09-09T16:07:09;7.65;;;3.00;;
25980;SDS011;13772;52.996;9.124;2022-09-09T16:09:34;7.13;;;2.60;;
25980;SDS011;13772;52.996;9.124;2022-09-09T16:12:00;8.10;;;2.85;;
25980;SDS011;13772;52.996;9.124;2022-09-09T16:14:26;5.43;;;3.03;;
25980;SDS011;13772;52.996;9.124;2022-09-09T16:16:52;10.25;;;3.63;;
25980;SDS011;13772;52.996;9.124;2022-09-09T16:19:17;7.25;;;3.17;;
25980;SDS011;13772;52.996;9.124;2022-09-09T16:21:43;7.00;;;2.85;;
25980;SDS011;13772;52.996;9.124;2022-09-09T16:24:10;8.40;;;3.35;;
25980;SDS011;13772;52.996;9.124;2022-09-09T16:26:36;6.63;;;2.70;;
25980;SDS011;13772;52.996;9.124;2022-09-09T16:29:02;7.07;;;2.50;;
25980;SDS011;13772;52.996;9.124;2022-09-09T16:31:28;6.10;;;2.13;;
25980;SDS011;13772;52.996;9.124;2022-09-09T16:33:54;6.97;;;2.75;;
25980;SDS011;13772;52.996;9.124;2022-09-09T16:36:20;5.10;;;2.10;;
25980;SDS011;13772;52.996;9.124;2022-09-09T16:38:45;6.90;;;2.00;;
25980;SDS011;13772;52.996;9.124;2022-09-09T16:41:11;5.28;;;1.67;;
25980;SDS011;13772;52.996;9.124;2022-09-09T16:43:37;6.05;;;2.28;;
25980;SDS011;13772;52.996;9.124;2022-09-09T16:46:03;6.70;;;2.47;;
25980;SDS011;13772;52.996;9.124;2022-09-09T16:48:32;5.93;;;2.05;;
25980;SDS011;13772;52.996;9.124;2022-09-09T16:51:04;6.30;;;2.03;;
25980;SDS011;13772;52.996;9.124;2022-09-09T16:53:30;5.78;;;2.30;;
25980;SDS011;13772;52.996;9.124;2022-09-09T16:55:56;6.00;;;2.30;;
25980;SDS011;13772;52.996;9.124;2022-09-09T16:58:21;7.43;;;2.72;;
25980;SDS011;13772;52.996;9.124;2022-09-09T17:00:46;7.32;;;2.60;;
25980;SDS011;13772;52.996;9.124;2022-09-09T17:03:13;7.80;;;2.63;;
25980;SDS011;13772;52.996;9.124;2022-09-09T17:05:41;7.55;;;2.50;;
25980;SDS011;13772;52.996;9.124;2022-09-09T17:08:06;4.88;;;2.85;;
25980;SDS011;13772;52.996;9.124;2022-09-09T17:10:31;7.38;;;3.00;;
25980;SDS011;13772;52.996;9.124;2022-09-09T17:12:57;4.00;;;2.00;;
25980;SDS011;13772;52.996;9.124;2022-09-09T17:15:22;5.38;;;2.65;;
25980;SDS011;13772;52.996;9.124;2022-09-09T17:17:48;9.02;;;2.95;;
25980;SDS011;13772;52.996;9.124;2022-09-09T17:20:17;5.05;;;2.22;;
25980;SDS011;13772;52.996;9.124;2022-09-09T17:22:42;5.78;;;2.47;;
25980;SDS011;13772;52.996;9.124;2022-09-09T17:25:07;4.95;;;2.60;;
25980;SDS011;13772;52.996;9.124;2022-09-09T17:27:33;7.72;;;3.03;;
25980;SDS011;13772;52.996;9.124;2022-09-09T17:29:58;5.05;;;2.05;;
25980;SDS011;13772;52.996;9.124;2022-09-09T17:32:23;5.07;;;2.30;;
25980;SDS011;13772;52.996;9.124;2022-09-09T17:34:48;5.25;;;2.25;;
25980;SDS011;13772;52.996;9.124;2022-09-09T17:37:14;5.40;;;2.03;;
25980;SDS011;13772;52.996;9.124;2022-09-09T17:39:39;6.35;;;2.17;;
25980;SDS011;13772;52.996;9.124;2022-09-09T17:42:04;11.02;;;3.30;;
25980;SDS011;13772;52.996;9.124;2022-09-09T17:44:32;6.00;;;2.38;;
25980;SDS011;13772;52.996;9.124;2022-09-09T17:46:57;5.03;;;2.50;;
25980;SDS011;13772;52.996;9.124;2022-09-09T17:49:22;5.78;;;2.33;;
25980;SDS011;13772;52.996;9.124;2022-09-09T17:51:47;7.97;;;2.72;;
25980;SDS011;13772;52.996;9.124;2022-09-09T17:54:17;6.95;;;2.83;;
25980;SDS011;13772;52.996;9.124;2022-09-09T17:56:42;5.72;;;2.78;;
25980;SDS011;13772;52.996;9.124;2022-09-09T17:59:09;6.40;;;3.00;;
25980;SDS011;13772;52.996;9.124;2022-09-09T18:01:36;4.88;;;2.80;;
25980;SDS011;13772;52.996;9.124;2022-09-09T18:04:02;8.20;;;3.25;;
25980;SDS011;13772;52.996;9.124;2022-09-09T18:06:29;9.52;;;3.55;;
25980;SDS011;13772;52.996;9.124;2022-09-09T18:08:56;11.68;;;4.20;;
25980;SDS011;13772;52.996;9.124;2022-09-09T18:11:23;7.57;;;4.07;;
25980;SDS011;13772;52.996;9.124;2022-09-09T18:13:50;9.55;;;4.65;;
25980;SDS011;13772;52.996;9.124;2022-09-09T18:16:16;7.82;;;3.80;;
25980;SDS011;13772;52.996;9.124;2022-09-09T18:18:46;10.27;;;4.30;;
25980;SDS011;13772;52.996;9.124;2022-09-09T18:21:12;9.63;;;3.95;;
25980;SDS011;13772;52.996;9.124;2022-09-09T18:23:38;8.13;;;4.30;;
25980;SDS011;13772;52.996;9.124;2022-09-09T18:26:07;9.60;;;4.20;;
25980;SDS011;13772;52.996;9.124;2022-09-09T18:28:34;8.70;;;4.10;;
25980;SDS011;13772;52.996;9.124;2022-09-09T18:30:59;9.10;;;4.88;;
25980;SDS011;13772;52.996;9.124;2022-09-09T18:33:24;11.73;;;4.53;;
25980;SDS011;13772;52.996;9.124;2022-09-09T18:35:50;7.63;;;4.45;;
25980;SDS011;13772;52.996;9.124;2022-09-09T18:38:16;12.38;;;5.60;;
25980;SDS011;13772;52.996;9.124;2022-09-09T18:40:41;8.90;;;5.05;;
25980;SDS011;13772;52.996;9.124;2022-09-09T18:43:06;10.93;;;4.65;;
25980;SDS011;13772;52.996;9.124;2022-09-09T18:45:34;9.18;;;4.70;;
25980;SDS011;13772;52.996;9.124;2022-09-09T18:47:59;8.07;;;4.60;;
25980;SDS011;13772;52.996;9.124;2022-09-09T18:50:25;6.43;;;3.92;;
25980;SDS011;13772;52.996;9.124;2022-09-09T18:52:50;8.30;;;4.30;;
25980;SDS011;13772;52.996;9.124;2022-09-09T18:55:16;10.48;;;4.82;;
25980;SDS011;13772;52.996;9.124;2022-09-09T18:57:42;7.10;;;4.53;;
25980;SDS011;13772;52.996;9.124;2022-09-09T19:00:07;9.15;;;5.00;;
25980;SDS011;13772;52.996;9.124;2022-09-09T19:02:34;8.77;;;4.55;;
25980;SDS011;13772;52.996;9.124;2022-09-09T19:04:59;9.52;;;5.00;;
25980;SDS011;13772;52.996;9.124;2022-09-09T19:07:24;7.18;;;4.82;;
25980;SDS011;13772;52.996;9.124;2022-09-09T19:09:49;9.73;;;4.78;;
25980;SDS011;13772;52.996;9.124;2022-09-09T19:12:15;10.73;;;5.50;;
25980;SDS011;13772;52.996;9.124;2022-09-09T19:14:40;12.70;;;5.20;;
25980;SDS011;13772;52.996;9.124;2022-09-09T19:17:05;9.55;;;5.03;;
25980;SDS011;13772;52.996;9.124;2022-09-09T19:19:31;12.43;;;4.75;;
25980;SDS011;13772;52.996;9.124;2022-09-09T19:21:57;14.88;;;5.32;;
25980;SDS011;13772;52.996;9.124;2022-09-09T19:24:24;9.45;;;5.95;;
25980;SDS011;13772;52.996;9.124;2022-09-09T19:26:52;13.43;;;5.72;;
25980;SDS011;13772;52.996;9.124;2022-09-09T19:29:18;10.43;;;5.78;;
25980;SDS011;13772;52.996;9.124;2022-09-09T19:31:45;9.20;;;5.88;;
25980;SDS011;13772;52.996;9.124;2022-09-09T19:34:10;11.05;;;6.25;;
25980;SDS011;13772;52.996;9.124;2022-09-09T19:36:36;10.85;;;5.82;;
25980;SDS011;13772;52.996;9.124;2022-09-09T19:39:02;12.25;;;5.78;;
25980;SDS011;13772;52.996;9.124;2022-09-09T19:41:28;11.70;;;5.40;;
25980;SDS011;13772;52.996;9.124;2022-09-09T19:44:00;14.75;;;6.00;;
25980;SDS011;13772;52.996;9.124;2022-09-09T19:46:29;21.15;;;6.07;;
25980;SDS011;13772;52.996;9.124;2022-09-09T19:48:54;6.32;;;5.03;;
25980;SDS011;13772;52.996;9.124;2022-09-09T19:51:20;12.18;;;5.13;;
25980;SDS011;13772;52.996;9.124;2022-09-09T19:53:47;9.50;;;5.00;;
25980;SDS011;13772;52.996;9.124;2022-09-09T19:56:13;11.02;;;5.13;;
25980;SDS011;13772;52.996;9.124;2022-09-09T19:58:39;9.00;;;5.63;;
25980;SDS011;13772;52.996;9.124;2022-09-09T20:01:11;9.90;;;6.30;;
25980;SDS011;13772;52.996;9.124;2022-09-09T20:03:37;12.02;;;5.70;;
25980;SDS011;13772;52.996;9.124;2022-09-09T20:06:07;7.82;;;5.40;;
25980;SDS011;13772;52.996;9.124;2022-09-09T20:08:32;9.25;;;5.70;;
25980;SDS011;13772;52.996;9.124;2022-09-09T20:10:58;14.43;;;5.93;;
25980;SDS011;13772;52.996;9.124;2022-09-09T20:13:27;9.57;;;6.47;;
25980;SDS011;13772;52.996;9.124;2022-09-09T20:15:59;8.63;;;5.30;;
25980;SDS011;13772;52.996;9.124;2022-09-09T20:18:26;11.52;;;5.78;;
25980;SDS011;13772;52.996;9.124;2022-09-09T20:20:51;7.25;;;5.22;;
25980;SDS011;13772;52.996;9.124;2022-09-09T20:23:20;6.90;;;6.10;;
25980;SDS011;13772;52.996;9.124;2022-09-09T20:25:45;10.95;;;6.20;;
25980;SDS011;13772;52.996;9.124;2022-09-09T20:28:11;7.50;;;5.22;;
25980;SDS011;13772;52.996;9.124;2022-09-09T20:30:37;7.43;;;4.68;;
25980;SDS011;13772;52.996;9.124;2022-09-09T20:33:02;11.45;;;5.47;;
25980;SDS011;13772;52.996;9.124;2022-09-09T20:35:28;10.27;;;5.72;;
25980;SDS011;13772;52.996;9.124;2022-09-09T20:37:55;10.07;;;5.32;;
25980;SDS011;13772;52.996;9.124;2022-09-09T20:40:20;10.05;;;4.90;;
25980;SDS011;13772;52.996;9.124;2022-09-09T20:42:46;12.23;;;5.20;;
25980;SDS011;13772;52.996;9.124;2022-09-09T20:45:11;8.27;;;5.13;;
25980;SDS011;13772;52.996;9.124;2022-09-09T20:47:40;10.37;;;5.13;;
25980;SDS011;13772;52.996;9.124;2022-09-09T20:50:05;7.75;;;5.28;;
25980;SDS011;13772;52.996;9.124;2022-09-09T20:52:30;8.15;;;5.57;;
25980;SDS011;13772;52.996;9.124;2022-09-09T20:54:56;8.30;;;5.47;;
25980;SDS011;13772;52.996;9.124;2022-09-09T20:57:21;9.45;;;4.95;;
25980;SDS011;13772;52.996;9.124;2022-09-09T20:59:47;9.70;;;4.82;;
25980;SDS011;13772;52.996;9.124;2022-09-09T21:02:15;9.30;;;4.50;;
25980;SDS011;13772;52.996;9.124;2022-09-09T21:04:42;6.93;;;4.10;;
25980;SDS011;13772;52.996;9.124;2022-09-09T21:07:08;6.72;;;4.13;;
25980;SDS011;13772;52.996;9.124;2022-09-09T21:09:34;7.45;;;4.15;;
25980;SDS011;13772;52.996;9.124;2022-09-09T21:11:59;8.18;;;4.25;;
25980;SDS011;13772;52.996;9.124;2022-09-09T21:14:24;6.97;;;4.18;;
25980;SDS011;13772;52.996;9.124;2022-09-09T21:16:51;5.78;;;3.78;;
25980;SDS011;13772;52.996;9.124;2022-09-09T21:19:16;7.90;;;3.65;;
25980;SDS011;13772;52.996;9.124;2022-09-09T21:21:41;10.13;;;4.18;;
25980;SDS011;13772;52.996;9.124;2022-09-09T21:24:07;7.50;;;3.75;;
25980;SDS011;13772;52.996;9.124;2022-09-09T21:26:33;5.20;;;3.67;;
25980;SDS011;13772;52.996;9.124;2022-09-09T21:28:59;7.72;;;3.90;;
25980;SDS011;13772;52.996;9.124;2022-09-09T21:31:24;8.68;;;3.50;;
25980;SDS011;13772;52.996;9.124;2022-09-09T21:33:50;7.30;;;3.75;;
25980;SDS011;13772;52.996;9.124;2022-09-09T21:36:15;5.68;;;3.72;;
25980;SDS011;13772;52.996;9.124;2022-09-09T21:38:41;6.03;;;3.75;;
25980;SDS011;13772;52.996;9.124;2022-09-09T21:41:08;10.70;;;4.03;;
25980;SDS011;13772;52.996;9.124;2022-09-09T21:43:33;7.25;;;3.85;;
25980;SDS011;13772;52.996;9.124;2022-09-09T21:45:58;5.80;;;3.75;;
25980;SDS011;13772;52.996;9.124;2022-09-09T21:48:24;6.20;;;3.83;;
25980;SDS011;13772;52.996;9.124;2022-09-09T21:50:52;8.45;;;3.70;;
25980;SDS011;13772;52.996;9.124;2022-09-09T21:53:19;6.95;;;3.33;;
